Time;durP1;ratioP1;P1;durP2;ratioP2;P2;SDS_P1;SDS_P2;PMS_P1;PMS_P2;Temp;Humidity;BMP_temperature;BMP_pressure;BME280_temperature;BME280_humidity;BME280_pressure;Samples;Min_cycle;Max_cycle;Signal;HPM_P1;HPM_P2
2021/09/15 00:00:50;;;;;;;17.10;7.20;;;;;;;20.81;79.57;99920.19;5102428;28;20543;-65
2021/09/15 00:03:18;;;;;;;24.45;8.98;;;;;;;20.79;79.44;99914.06;5092133;28;20503;-66
2021/09/15 00:05:44;;;;;;;15.43;7.13;;;;;;;20.81;79.66;99923.84;5077474;28;20090;-65
2021/09/15 00:08:11;;;;;;;13.85;6.95;;;;;;;20.76;79.41;99915.63;5103865;28;20075;-65
2021/09/15 00:10:38;;;;;;;22.85;9.15;;;;;;;20.79;79.42;99911.22;5100463;28;20096;-66
2021/09/15 00:13:05;;;;;;;18.30;8.15;;;;;;;20.83;79.38;99918.63;5097843;28;20083;-67
2021/09/15 00:15:32;;;;;;;16.75;8.02;;;;;;;20.84;79.34;99916.63;5081933;28;20065;-66
2021/09/15 00:17:59;;;;;;;13.65;8.35;;;;;;;20.84;79.40;99913.78;5085032;28;20503;-66
2021/09/15 00:20:26;;;;;;;17.52;7.72;;;;;;;20.84;79.18;99908.09;5085074;28;20071;-67
2021/09/15 00:22:53;;;;;;;13.23;7.60;;;;;;;20.76;79.32;99898.59;5105288;28;20126;-66
2021/09/15 00:25:20;;;;;;;18.83;7.88;;;;;;;20.87;79.18;99913.06;5101367;28;20115;-67
2021/09/15 00:27:46;;;;;;;18.90;8.05;;;;;;;20.85;79.27;99914.59;5105111;28;20043;-66
2021/09/15 00:30:13;;;;;;;16.88;7.93;;;;;;;20.87;79.49;99918.72;5092245;28;20128;-66
2021/09/15 00:32:40;;;;;;;18.63;8.52;;;;;;;20.85;79.35;99911.75;5093688;28;20456;-67
2021/09/15 00:35:09;;;;;;;17.52;8.65;;;;;;;20.73;79.39;99890.00;5109909;28;20495;-67
2021/09/15 00:37:36;;;;;;;19.17;7.38;;;;;;;20.79;79.87;99905.56;5106029;28;20132;-68
2021/09/15 00:40:03;;;;;;;15.85;7.28;;;;;;;20.77;79.96;99899.41;5099878;28;20044;-68
2021/09/15 00:42:30;;;;;;;23.08;7.53;;;;;;;20.74;79.85;99906.63;5106533;28;20134;-61
2021/09/15 00:44:58;;;;;;;18.25;7.72;;;;;;;20.73;79.86;99901.34;5096562;28;20040;-63
2021/09/15 00:47:25;;;;;;;14.10;6.93;;;;;;;20.69;80.36;99904.06;5105156;28;20078;-63
2021/09/15 00:49:51;;;;;;;14.98;6.88;;;;;;;20.64;80.50;99895.00;5113332;27;20143;-63
2021/09/15 00:52:18;;;;;;;15.90;5.97;;;;;;;20.43;80.67;99864.84;5107846;28;20122;-63
2021/09/15 00:54:46;;;;;;;12.32;6.38;;;;;;;20.55;81.09;99887.50;5110809;28;20067;-62
2021/09/15 00:57:13;;;;;;;13.88;6.35;;;;;;;20.57;81.00;99892.78;5108084;28;20101;-62
2021/09/15 00:59:41;;;;;;;11.73;6.00;;;;;;;20.56;80.93;99885.47;5082259;28;20079;-64
2021/09/15 01:02:08;;;;;;;12.93;6.15;;;;;;;20.61;81.06;99893.72;5110135;28;20082;-63
2021/09/15 01:04:35;;;;;;;14.25;6.68;;;;;;;20.59;80.75;99896.09;5114751;28;20051;-64
2021/09/15 01:07:02;;;;;;;18.48;7.95;;;;;;;20.57;80.68;99893.63;5113167;28;20151;-64
2021/09/15 01:09:35;;;;;;;11.55;7.35;;;;;;;20.59;80.67;99887.59;5096661;28;20507;-63
2021/09/15 01:12:02;;;;;;;12.02;7.47;;;;;;;20.64;80.34;99897.84;5101648;28;20131;-68
2021/09/15 01:14:29;;;;;;;15.27;7.93;;;;;;;20.68;80.15;99910.09;5109685;27;20126;-68
2021/09/15 01:17:02;;;;;;;12.77;7.00;;;;;;;20.65;80.19;99899.47;5109795;28;20127;-68
2021/09/15 01:19:29;;;;;;;13.20;7.43;;;;;;;20.68;80.08;99904.44;5103168;28;20076;-69
2021/09/15 01:21:59;;;;;;;15.43;8.60;;;;;;;20.64;80.32;99886.50;5107234;28;20040;-66
2021/09/15 01:24:31;;;;;;;20.05;9.88;;;;;;;20.67;80.20;99903.59;5103296;28;20460;-66
2021/09/15 01:26:59;;;;;;;13.75;8.77;;;;;;;20.68;80.10;99905.25;5078837;28;20127;-66
2021/09/15 01:29:31;;;;;;;13.82;8.93;;;;;;;20.62;80.20;99888.88;5095010;28;20158;-65
2021/09/15 01:31:58;;;;;;;14.57;9.07;;;;;;;20.67;79.92;99906.44;5101653;28;20075;-61
2021/09/15 01:34:26;;;;;;;14.65;8.70;;;;;;;20.68;79.68;99907.25;5092576;28;20062;-62
2021/09/15 01:36:53;;;;;;;19.30;8.80;;;;;;;20.61;79.69;99887.22;5094357;28;20123;-62
2021/09/15 01:39:20;;;;;;;15.10;9.20;;;;;;;20.69;79.69;99900.41;5102822;27;20134;-64
2021/09/15 01:41:47;;;;;;;17.52;8.85;;;;;;;20.69;79.93;99900.41;5100740;28;20176;-63
2021/09/15 01:44:14;;;;;;;14.82;8.90;;;;;;;20.68;79.95;99904.44;5108454;28;20123;-63
2021/09/15 01:46:41;;;;;;;17.98;9.30;;;;;;;20.68;79.91;99907.25;5109027;28;20197;-63
2021/09/15 01:49:08;;;;;;;14.80;8.27;;;;;;;20.73;79.60;99907.00;5112684;28;20131;-62
2021/09/15 01:51:39;;;;;;;15.70;9.40;;;;;;;20.71;79.76;99901.69;5108046;28;20040;-64
2021/09/15 01:54:06;;;;;;;18.83;9.57;;;;;;;20.73;79.76;99901.34;5103860;27;20058;-67
2021/09/15 01:56:33;;;;;;;14.73;8.70;;;;;;;20.77;79.53;99902.25;5106671;28;20130;-62
2021/09/15 01:58:59;;;;;;;16.50;9.63;;;;;;;20.66;79.43;99889.81;5107470;27;20122;-65
2021/09/15 02:01:26;;;;;;;21.70;9.52;;;;;;;20.76;79.84;99907.09;5102422;28;20497;-64
2021/09/15 02:03:53;;;;;;;17.88;8.13;;;;;;;20.76;79.68;99909.94;5105890;28;20040;-63
2021/09/15 02:06:20;;;;;;;14.35;8.38;;;;;;;20.78;79.44;99909.56;5101359;28;20071;-64
2021/09/15 02:08:47;;;;;;;21.75;8.70;;;;;;;20.80;79.52;99916.53;5098293;28;20074;-64
2021/09/15 02:11:13;;;;;;;24.35;9.82;;;;;;;20.82;79.77;99917.00;5101530;27;20071;-66
2021/09/15 02:13:40;;;;;;;18.52;9.13;;;;;;;20.84;79.39;99919.47;5106069;28;20047;-66
2021/09/15 02:16:07;;;;;;;18.00;8.50;;;;;;;20.86;79.45;99914.25;5103963;28;20076;-63
2021/09/15 02:18:34;;;;;;;17.38;8.93;;;;;;;20.86;79.21;99910.59;5113625;28;20082;-63
2021/09/15 02:21:01;;;;;;;18.38;8.82;;;;;;;20.88;79.46;99908.19;5102916;28;20075;-63
2021/09/15 02:23:27;;;;;;;13.77;8.00;;;;;;;20.87;79.55;99915.06;5104818;28;20100;-63
2021/09/15 02:25:54;;;;;;;20.92;8.68;;;;;;;20.86;79.38;99917.09;5104887;27;20070;-68
2021/09/15 02:28:21;;;;;;;19.90;9.40;;;;;;;20.92;79.46;99921.31;5097422;28;20130;-66
2021/09/15 02:30:48;;;;;;;19.88;9.90;;;;;;;20.94;79.39;99926.59;5103997;28;20081;-65
2021/09/15 02:33:15;;;;;;;18.08;8.45;;;;;;;20.97;79.43;99923.03;5092802;28;20081;-64
2021/09/15 02:35:41;;;;;;;22.20;10.32;;;;;;;21.00;79.30;99931.66;5112564;28;20036;-63
2021/09/15 02:38:08;;;;;;;17.35;9.63;;;;;;;21.04;79.24;99935.41;5104772;28;20435;-63
2021/09/15 02:40:35;;;;;;;18.50;9.90;;;;;;;20.97;79.45;99925.88;5097020;28;20040;-63
2021/09/15 02:43:03;;;;;;;18.70;10.02;;;;;;;20.99;79.68;99935.69;5096269;28;20079;-63
2021/09/15 02:45:30;;;;;;;16.35;9.10;;;;;;;20.94;79.82;99935.13;5106683;28;20093;-63
2021/09/15 02:47:56;;;;;;;19.85;10.15;;;;;;;20.93;79.92;99942.81;5112067;27;20131;-63
2021/09/15 02:50:23;;;;;;;19.23;9.82;;;;;;;20.85;80.17;99938.13;5100631;28;20132;-63
2021/09/15 02:52:50;;;;;;;19.02;10.63;;;;;;;20.74;80.29;99931.34;5093054;28;20123;-63
2021/09/15 02:55:17;;;;;;;20.60;9.98;;;;;;;20.85;80.54;99949.47;5102446;27;20120;-64
2021/09/15 02:57:44;;;;;;;18.70;9.70;;;;;;;20.85;80.24;99960.00;5105510;27;20426;-63
2021/09/15 03:00:11;;;;;;;18.67;10.25;;;;;;;20.83;80.69;99947.00;5084997;28;20486;-61
2021/09/15 03:02:38;;;;;;;16.58;9.38;;;;;;;20.76;80.20;99957.34;5097348;28;20492;-61
2021/09/15 03:05:05;;;;;;;19.85;10.52;;;;;;;20.71;80.45;99960.44;5106301;28;20122;-61
2021/09/15 03:07:32;;;;;;;22.52;10.00;;;;;;;20.64;80.49;99961.06;5105570;28;20579;-60
2021/09/15 03:09:59;;;;;;;18.55;9.35;;;;;;;20.55;80.63;99964.09;5105150;27;20457;-60
2021/09/15 03:12:26;;;;;;;21.38;10.13;;;;;;;20.58;80.72;99974.72;5090587;28;20495;-61
2021/09/15 03:14:53;;;;;;;20.38;8.25;;;;;;;20.55;80.63;99971.78;5101623;28;20040;-59
2021/09/15 03:17:19;;;;;;;19.52;10.00;;;;;;;20.26;80.97;99927.56;5096776;28;20086;-59
2021/09/15 03:19:46;;;;;;;15.02;8.80;;;;;;;20.57;80.97;99977.91;5096876;28;20035;-63
2021/09/15 03:22:14;;;;;;;21.17;9.20;;;;;;;20.56;81.15;99977.06;5095121;28;20084;-63
2021/09/15 03:24:41;;;;;;;18.17;9.85;;;;;;;20.48;80.93;99951.69;5079088;27;20123;-62
2021/09/15 03:27:08;;;;;;;18.25;9.98;;;;;;;20.57;80.70;99969.38;5097296;28;20123;-61
2021/09/15 03:29:35;;;;;;;17.75;9.75;;;;;;;20.50;80.81;99964.34;5110186;28;22479;-62
2021/09/15 03:32:02;;;;;;;20.52;9.50;;;;;;;20.54;80.92;99965.25;5095612;28;20123;-62
2021/09/15 03:34:29;;;;;;;22.92;9.82;;;;;;;20.50;80.63;99964.34;5105528;28;20123;-62
2021/09/15 03:36:56;;;;;;;22.48;9.50;;;;;;;20.49;80.47;99976.84;5074848;28;20147;-61
2021/09/15 03:39:23;;;;;;;16.63;9.15;;;;;;;20.44;80.66;99953.59;5092225;28;20048;-62
2021/09/15 03:41:49;;;;;;;16.30;9.43;;;;;;;20.58;80.59;99973.88;5095158;28;20119;-61
2021/09/15 03:44:16;;;;;;;19.48;8.82;;;;;;;20.61;79.99;99972.31;5092115;28;20136;-63
2021/09/15 03:46:43;;;;;;;21.48;9.77;;;;;;;20.63;79.94;99984.16;5078488;28;20087;-63
2021/09/15 03:49:10;;;;;;;16.63;8.73;;;;;;;20.59;80.24;99976.34;5092331;28;20132;-65
2021/09/15 03:51:37;;;;;;;21.40;9.40;;;;;;;20.52;80.10;99964.81;5097734;28;20223;-64
2021/09/15 03:54:03;;;;;;;17.55;9.32;;;;;;;20.57;80.08;99978.72;5100434;28;20127;-64
2021/09/15 03:56:30;;;;;;;22.92;8.88;;;;;;;20.53;80.40;99972.13;5096295;28;20075;-64
2021/09/15 03:58:57;;;;;;;25.10;9.40;;;;;;;20.56;80.26;99977.06;5096123;28;20114;-64
2021/09/15 04:01:24;;;;;;;20.77;9.38;;;;;;;20.57;80.24;99990.06;5110431;28;20134;-64
2021/09/15 04:03:51;;;;;;;31.67;11.30;;;;;;;20.57;79.99;99978.72;5097466;28;20051;-64
2021/09/15 04:06:18;;;;;;;18.00;8.98;;;;;;;20.58;79.98;99990.88;5101926;28;20423;-65
2021/09/15 04:08:44;;;;;;;17.33;8.75;;;;;;;20.58;80.00;99985.22;5113694;28;20039;-64
2021/09/15 04:11:11;;;;;;;17.40;8.38;;;;;;;20.62;80.11;99979.66;5098501;28;20086;-64
2021/09/15 04:13:38;;;;;;;19.42;9.75;;;;;;;20.58;80.17;99976.69;5114630;27;20078;-65
2021/09/15 04:16:05;;;;;;;22.67;9.25;;;;;;;20.51;80.12;99957.50;5120896;27;20131;-63
2021/09/15 04:18:32;;;;;;;26.25;9.05;;;;;;;20.68;80.38;99983.88;5104793;28;20515;-64
2021/09/15 04:20:59;;;;;;;21.73;9.35;;;;;;;20.68;80.18;99978.19;5105004;28;20102;-63
2021/09/15 04:23:30;;;;;;;18.15;9.32;;;;;;;20.64;80.05;99983.78;5077219;28;20099;-62
2021/09/15 04:31:29;;;;;;;18.65;9.35;;;;;;;20.73;80.15;99992.13;5102681;27;20047;-66
2021/09/15 04:33:57;;;;;;;18.25;9.60;;;;;;;20.76;79.95;99980.06;5096053;28;20452;-67
2021/09/15 04:36:24;;;;;;;18.40;9.73;;;;;;;20.69;80.16;99974.19;5103799;28;20563;-64
2021/09/15 04:38:51;;;;;;;19.42;9.60;;;;;;;20.78;80.14;99980.50;5109033;27;20142;-65
2021/09/15 04:41:18;;;;;;;18.00;9.77;;;;;;;20.75;79.82;99969.88;5109317;27;20130;-64
2021/09/15 04:43:45;;;;;;;21.75;10.75;;;;;;;20.82;79.92;99976.59;5106418;28;20086;-63
2021/09/15 04:46:13;;;;;;;18.65;9.80;;;;;;;20.84;79.91;99984.72;5112693;28;20119;-67
2021/09/15 04:48:40;;;;;;;18.05;9.38;;;;;;;20.82;79.99;99990.78;5110442;28;20072;-71
2021/09/15 04:51:07;;;;;;;19.30;9.30;;;;;;;20.82;79.93;99987.13;5106800;28;20134;-70
2021/09/15 04:53:33;;;;;;;15.18;9.02;;;;;;;20.79;80.14;99999.19;5095632;28;20139;-71
2021/09/15 04:56:00;;;;;;;16.10;8.80;;;;;;;20.75;80.44;99989.72;5110974;27;20124;-71
2021/09/15 04:58:27;;;;;;;18.55;9.90;;;;;;;20.77;80.28;100004.41;5107178;28;20051;-72
2021/09/15 05:00:54;;;;;;;18.02;10.43;;;;;;;20.51;80.51;99957.50;5100611;28;20131;-71
2021/09/15 05:03:21;;;;;;;18.58;10.50;;;;;;;20.68;80.79;99992.38;5101856;27;20091;-71
2021/09/15 05:05:48;;;;;;;21.05;10.70;;;;;;;20.62;80.47;99983.31;5104563;28;20061;-71
2021/09/15 05:08:15;;;;;;;22.80;10.93;;;;;;;20.69;80.77;99991.22;5104461;28;20078;-71
2021/09/15 05:10:42;;;;;;;19.02;10.95;;;;;;;20.66;80.50;99986.25;5109455;27;20119;-71
2021/09/15 05:13:09;;;;;;;21.27;11.05;;;;;;;20.67;80.64;99993.56;5104947;28;20091;-70
2021/09/15 05:15:36;;;;;;;24.10;12.63;;;;;;;20.63;80.66;99992.66;5083994;28;20295;-70
2021/09/15 05:18:03;;;;;;;22.70;12.18;;;;;;;20.65;80.73;99993.09;5105933;28;20128;-70
2021/09/15 05:20:30;;;;;;;24.58;12.80;;;;;;;20.57;80.62;99990.06;5100636;28;20036;-69
2021/09/15 05:22:57;;;;;;;24.98;12.02;;;;;;;20.54;81.13;99982.28;5094947;28;20693;-70
2021/09/15 05:25:25;;;;;;;22.73;11.25;;;;;;;20.57;81.06;100003.44;5103566;28;20118;-69
2021/09/15 05:27:52;;;;;;;24.88;11.80;;;;;;;20.55;81.26;99997.31;5110006;28;20071;-69
2021/09/15 05:30:19;;;;;;;25.63;12.02;;;;;;;20.56;81.16;100007.47;5107765;28;20093;-69
2021/09/15 05:32:46;;;;;;;23.38;13.48;;;;;;;20.56;81.10;100005.44;5113225;27;20543;-64
2021/09/15 05:35:14;;;;;;;26.33;13.07;;;;;;;20.51;81.26;99994.38;5099923;28;20477;-64
2021/09/15 05:37:41;;;;;;;22.42;12.45;;;;;;;20.51;81.36;99999.19;5097034;28;20068;-63
2021/09/15 05:40:09;;;;;;;24.52;12.70;;;;;;;20.37;81.45;99968.38;5108079;28;20122;-63
2021/09/15 05:42:36;;;;;;;30.02;13.75;;;;;;;20.51;81.24;100007.69;5106601;28;20131;-75
2021/09/15 05:45:05;;;;;;;22.48;10.73;;;;;;;20.47;81.66;99993.38;5105195;28;20051;-66
2021/09/15 05:47:32;;;;;;;21.25;11.90;;;;;;;20.54;81.42;100016.31;5097590;27;20040;-66
2021/09/15 05:50:00;;;;;;;24.75;12.82;;;;;;;20.44;81.50;100002.63;5103749;28;20094;-67
2021/09/15 05:52:27;;;;;;;27.58;13.43;;;;;;;20.57;81.54;100023.28;5099077;28;20134;-68
2021/09/15 05:54:54;;;;;;;27.23;12.38;;;;;;;20.57;81.21;100026.94;5100238;27;20044;-65
2021/09/15 05:57:21;;;;;;;22.33;11.02;;;;;;;20.62;81.35;100031.56;5107537;28;20161;-64
2021/09/15 05:59:47;;;;;;;21.70;11.68;;;;;;;20.65;81.48;100038.50;5085271;28;20146;-64
2021/09/15 06:02:14;;;;;;;20.35;10.23;;;;;;;20.70;81.15;100043.91;5102386;28;20123;-64
2021/09/15 06:04:41;;;;;;;20.33;11.98;;;;;;;20.66;81.17;100040.16;5097828;28;20083;-64
2021/09/15 06:07:08;;;;;;;26.52;12.85;;;;;;;20.52;81.33;100049.91;5102790;28;20104;-64
2021/09/15 06:09:35;;;;;;;22.92;12.05;;;;;;;20.42;81.04;100038.22;5111098;28;20119;-69
2021/09/15 06:12:02;;;;;;;24.83;11.98;;;;;;;20.35;81.47;100033.16;5109047;28;20051;-65
2021/09/15 06:14:29;;;;;;;45.38;23.85;;;;;;;20.33;81.42;100042.00;5094101;28;20087;-61
2021/09/15 06:16:56;;;;;;;31.65;16.58;;;;;;;20.38;81.82;100049.44;5102506;28;20122;-64
2021/09/15 06:19:23;;;;;;;28.05;13.30;;;;;;;20.41;81.83;100045.91;5107871;28;20106;-63
2021/09/15 06:21:49;;;;;;;24.23;13.98;;;;;;;20.39;81.96;100050.28;5099781;28;20072;-62
2021/09/15 06:24:16;;;;;;;26.95;13.55;;;;;;;20.40;81.77;100052.72;5095435;28;20436;-64
2021/09/15 06:26:43;;;;;;;29.67;14.18;;;;;;;20.06;81.49;100008.75;5096977;28;20084;-64
2021/09/15 06:29:10;;;;;;;31.23;14.30;;;;;;;20.26;81.59;100052.31;5110860;28;20131;-64
2021/09/15 06:31:37;;;;;;;26.40;12.52;;;;;;;20.21;81.76;100066.75;5105719;27;20136;-68
2021/09/15 06:34:05;;;;;;;30.92;12.30;;;;;;;20.26;82.00;100072.97;5109642;28;20121;-62
2021/09/15 06:36:32;;;;;;;27.08;12.32;;;;;;;20.26;81.65;100070.13;5083488;28;20079;-62
2021/09/15 06:38:59;;;;;;;29.20;13.48;;;;;;;20.26;81.60;100075.00;5098688;28;20047;-62
2021/09/15 06:41:26;;;;;;;28.42;13.57;;;;;;;20.20;81.86;100076.41;5096937;28;20066;-62
2021/09/15 06:43:53;;;;;;;26.45;12.75;;;;;;;20.22;81.93;100071.22;5112627;28;20098;-62
2021/09/15 06:46:22;;;;;;;31.17;12.85;;;;;;;20.30;82.07;100078.75;5093422;28;20123;-62
2021/09/15 06:48:50;;;;;;;28.58;12.68;;;;;;;20.38;81.94;100077.81;5093059;28;20087;-62
2021/09/15 06:51:18;;;;;;;24.10;12.52;;;;;;;20.44;82.03;100076.34;5093391;28;20097;-62
2021/09/15 06:53:46;;;;;;;24.92;11.88;;;;;;;20.47;82.02;100078.47;5094002;28;20044;-62
2021/09/15 06:56:13;;;;;;;27.10;11.95;;;;;;;20.38;81.91;100065.66;5101582;27;20563;-62
2021/09/15 06:58:40;;;;;;;23.45;12.05;;;;;;;20.43;81.67;100074.72;5115618;27;20514;-62
2021/09/15 07:01:07;;;;;;;26.67;11.70;;;;;;;20.43;81.96;100080.38;5100920;28;20088;-63
2021/09/15 07:03:34;;;;;;;23.25;11.95;;;;;;;20.49;82.18;100093.13;5092917;28;20087;-62
2021/09/15 07:06:01;;;;;;;24.98;11.45;;;;;;;20.48;82.10;100094.31;5097021;28;20578;-64
2021/09/15 07:08:28;;;;;;;28.52;11.60;;;;;;;20.48;81.86;100104.84;5107741;28;20411;-62
2021/09/15 07:10:55;;;;;;;28.30;12.30;;;;;;;20.25;81.84;100074.16;5113212;28;20044;-68
2021/09/15 07:13:23;;;;;;;22.23;10.90;;;;;;;20.40;81.83;100105.81;5112071;27;20143;-64
2021/09/15 07:15:50;;;;;;;27.20;12.13;;;;;;;20.39;81.85;100107.81;5105084;27;20103;-62
2021/09/15 07:18:17;;;;;;;24.88;11.30;;;;;;;20.19;81.98;100088.94;5107592;27;20119;-62
2021/09/15 07:20:46;;;;;;;22.55;10.52;;;;;;;20.36;81.89;100111.38;5097022;28;20066;-63
2021/09/15 07:23:12;;;;;;;23.23;11.63;;;;;;;20.42;82.18;100118.44;5100374;28;20553;-63
2021/09/15 07:25:39;;;;;;;26.80;10.73;;;;;;;20.38;82.00;100128.84;5112590;28;20392;-62
2021/09/15 07:28:06;;;;;;;28.67;10.63;;;;;;;20.30;81.89;100104.28;5098091;28;20086;-63
2021/09/15 07:30:34;;;;;;;21.23;10.43;;;;;;;20.46;82.26;100125.06;5092803;28;20464;-63
2021/09/15 07:33:00;;;;;;;19.83;10.48;;;;;;;20.52;81.83;100128.50;5096840;28;20122;-63
2021/09/15 07:35:27;;;;;;;23.83;10.93;;;;;;;20.52;81.88;100126.50;5112517;28;20089;-63
2021/09/15 07:37:54;;;;;;;17.25;9.30;;;;;;;20.58;82.11;100129.88;5095445;28;20080;-62
2021/09/15 07:40:21;;;;;;;20.50;10.13;;;;;;;20.35;81.73;100078.53;5092348;28;20498;-62
2021/09/15 07:42:48;;;;;;;19.77;9.93;;;;;;;20.77;82.24;100137.78;5092124;28;20131;-62
2021/09/15 07:45:15;;;;;;;19.10;9.32;;;;;;;20.77;82.00;100112.22;5095155;28;20082;-62
2021/09/15 07:47:42;;;;;;;19.85;9.35;;;;;;;20.92;82.16;100120.00;5108171;28;20122;-63
2021/09/15 07:50:10;;;;;;;14.63;7.97;;;;;;;21.04;82.22;100121.94;5102174;28;20476;-63
2021/09/15 07:52:37;;;;;;;16.35;9.40;;;;;;;21.19;81.86;100135.34;5096802;28;20118;-63
2021/09/15 07:55:05;;;;;;;19.20;9.35;;;;;;;21.23;81.77;100124.06;5099113;28;20491;-62
2021/09/15 07:57:33;;;;;;;18.88;10.77;;;;;;;21.20;81.75;100113.47;5092238;28;20076;-63
2021/09/15 08:00:02;;;;;;;16.88;9.18;;;;;;;21.52;81.46;100148.47;5107762;28;20404;-63
2021/09/15 08:02:29;;;;;;;23.92;10.45;;;;;;;21.60;81.12;100149.47;5109632;28;20514;-63
2021/09/15 08:04:56;;;;;;;18.42;8.77;;;;;;;21.76;80.96;100153.97;5092006;28;20134;-63
2021/09/15 08:07:23;;;;;;;17.48;9.07;;;;;;;21.85;80.37;100165.19;5092797;28;20139;-63
2021/09/15 08:09:50;;;;;;;14.35;7.85;;;;;;;21.94;80.70;100160.13;5090970;28;20436;-63
2021/09/15 08:12:16;;;;;;;14.65;7.22;;;;;;;22.08;80.31;100175.88;5095388;28;20052;-63
2021/09/15 08:14:43;;;;;;;11.95;6.65;;;;;;;21.94;80.13;100157.28;5107257;28;20090;-63
2021/09/15 08:17:10;;;;;;;13.25;6.75;;;;;;;21.93;79.81;100164.16;5102656;28;20075;-62
2021/09/15 08:19:37;;;;;;;13.02;6.88;;;;;;;21.96;80.09;100169.09;5092175;28;20538;-63
2021/09/15 08:22:04;;;;;;;16.40;8.68;;;;;;;21.87;79.68;100164.78;5109624;28;20166;-63
2021/09/15 08:24:31;;;;;;;13.98;7.05;;;;;;;21.83;80.18;100175.25;5096210;28;20080;-63
2021/09/15 08:26:58;;;;;;;15.45;8.10;;;;;;;22.06;79.75;100181.13;5091959;28;20048;-62
2021/09/15 08:29:25;;;;;;;7.10;4.63;;;;;;;21.98;79.22;100178.13;5100920;28;20232;-62
2021/09/15 08:31:52;;;;;;;12.07;6.93;;;;;;;21.77;79.57;100149.94;5091991;28;20091;-63
2021/09/15 08:34:19;;;;;;;9.75;5.88;;;;;;;21.99;79.74;100161.88;5092146;28;20076;-62
2021/09/15 08:36:45;;;;;;;10.00;6.40;;;;;;;22.26;79.56;100174.38;5091911;28;20048;-61
2021/09/15 08:39:12;;;;;;;10.75;5.82;;;;;;;22.34;79.58;100175.34;5097199;28;20124;-61
2021/09/15 08:41:40;;;;;;;14.25;6.65;;;;;;;22.32;78.83;100174.88;5092327;28;20549;-63
2021/09/15 08:44:07;;;;;;;11.63;6.47;;;;;;;22.32;79.31;100189.94;5095161;28;20058;-63
2021/09/15 08:46:35;;;;;;;9.52;5.97;;;;;;;22.35;78.77;100180.66;5094052;28;20171;-60
2021/09/15 08:49:02;;;;;;;11.95;6.43;;;;;;;22.49;78.17;100191.56;5102944;28;20040;-61
2021/09/15 08:51:29;;;;;;;9.00;4.70;;;;;;;22.63;78.06;100185.38;5096391;28;20072;-62
2021/09/15 08:53:55;;;;;;;10.48;5.60;;;;;;;22.81;77.56;100186.63;5098668;28;20122;-61
2021/09/15 08:56:22;;;;;;;9.05;5.43;;;;;;;22.82;76.45;100193.13;5098635;27;20048;-61
2021/09/15 08:58:49;;;;;;;10.07;5.63;;;;;;;22.92;76.79;100196.25;5102213;28;20126;-61
2021/09/15 09:01:22;;;;;;;8.75;5.82;;;;;;;23.02;76.54;100197.69;5090069;28;20071;-66
2021/09/15 09:03:56;;;;;;;9.52;4.97;;;;;;;23.01;75.82;100200.88;5098964;28;20055;-65
2021/09/15 09:06:26;;;;;;;7.55;4.65;;;;;;;23.09;76.14;100197.84;5095114;28;20131;-66
2021/09/15 09:08:54;;;;;;;11.02;4.72;;;;;;;23.21;76.10;100213.13;5090000;28;20122;-65
2021/09/15 09:11:27;;;;;;;8.45;4.40;;;;;;;23.16;75.99;100191.47;5095400;28;20048;-65
2021/09/15 09:13:56;;;;;;;9.25;5.00;;;;;;;23.55;75.45;100217.91;5083860;28;20094;-67
2021/09/15 09:16:49;;;;;;;6.10;3.58;;;;;;;23.37;75.68;100228.94;5097603;28;20080;-66
2021/09/15 09:19:18;;;;;;;8.00;4.40;;;;;;;23.11;75.17;100228.78;5109052;28;20587;-66
2021/09/15 09:21:50;;;;;;;5.78;3.70;;;;;;;23.05;74.89;100225.41;5112564;28;20072;-67
2021/09/15 09:24:20;;;;;;;7.78;5.15;;;;;;;22.91;75.23;100231.59;5100512;27;20130;-66
2021/09/15 09:27:01;;;;;;;8.70;5.05;;;;;;;22.86;75.42;100236.75;5104513;28;20047;-66
2021/09/15 09:29:34;;;;;;;9.25;4.57;;;;;;;22.76;75.09;100229.59;5107203;28;20078;-67
2021/09/15 09:32:05;;;;;;;6.78;4.25;;;;;;;22.70;75.13;100225.38;5109974;28;20040;-67
2021/09/15 09:34:41;;;;;;;9.40;5.03;;;;;;;22.82;74.93;100250.91;5109945;28;20169;-69
2021/09/15 09:37:18;;;;;;;8.25;4.10;;;;;;;22.93;75.16;100239.78;5115169;28;20079;-68
2021/09/15 09:39:48;;;;;;;9.25;4.90;;;;;;;23.01;75.04;100217.97;5106281;28;20050;-69
2021/09/15 09:42:24;;;;;;;6.57;4.03;;;;;;;23.46;74.50;100242.97;5108416;28;20047;-68
2021/09/15 09:45:08;;;;;;;7.55;5.18;;;;;;;23.97;73.45;100253.38;5108050;28;20040;-69
2021/09/15 09:47:38;;;;;;;6.43;4.00;;;;;;;24.58;72.79;100258.13;5076632;28;20044;-69
2021/09/15 09:50:06;;;;;;;;;;;;;;;25.04;75.01;100260.88;5106933;28;20044;-69
2021/09/15 09:52:50;;;;;;;6.93;3.78;;;;;;;25.39;73.14;100265.47;5111336;28;19963;-68
2021/09/15 09:55:26;;;;;;;6.80;3.85;;;;;;;25.37;71.77;100273.59;5094431;28;20050;-69
2021/09/15 09:57:54;;;;;;;7.65;4.55;;;;;;;25.21;71.64;100273.81;5094501;28;20075;-69
2021/09/15 10:00:23;;;;;;;6.43;3.27;;;;;;;25.20;71.17;100275.84;5095038;28;20126;-70
2021/09/15 10:02:51;;;;;;;7.93;3.83;;;;;;;25.28;70.66;100282.47;5108759;28;20044;-69
2021/09/15 10:05:20;;;;;;;7.30;4.72;;;;;;;25.27;69.33;100277.97;5075695;28;20094;-70
2021/09/15 10:07:48;;;;;;;7.53;4.13;;;;;;;25.36;69.34;100271.97;5099764;28;20040;-69
2021/09/15 10:10:18;;;;;;;8.77;4.75;;;;;;;25.62;68.19;100269.03;5097244;28;20441;-71
2021/09/15 10:12:46;;;;;;;6.32;4.03;;;;;;;25.86;67.47;100267.72;5109222;27;20047;-70
2021/09/15 10:15:13;;;;;;;8.63;3.78;;;;;;;26.19;66.83;100277.47;5103968;28;20047;-67
2021/09/15 10:17:47;;;;;;;7.35;4.25;;;;;;;26.60;66.29;100280.31;5114342;28;20122;-67
2021/09/15 10:20:14;;;;;;;6.45;4.13;;;;;;;27.63;64.98;100278.13;5105260;28;20511;-67
2021/09/15 10:22:46;;;;;;;5.38;3.60;;;;;;;28.49;63.39;100271.81;5099749;28;20154;-67
2021/09/15 10:25:13;;;;;;;6.35;3.65;;;;;;;28.71;62.31;100284.09;5103144;28;20074;-66
2021/09/15 10:28:01;;;;;;;6.82;4.05;;;;;;;29.24;62.45;100268.88;5114829;27;20403;-66
2021/09/15 10:30:50;;;;;;;6.63;4.35;;;;;;;29.96;60.76;100273.09;5113652;28;20054;-67
2021/09/15 10:33:35;;;;;;;11.07;3.80;;;;;;;30.34;58.78;100276.16;5094327;28;20511;-67
2021/09/15 10:36:11;;;;;;;5.25;4.28;;;;;;;30.35;57.50;100274.91;5094547;28;20056;-67
2021/09/15 10:38:54;;;;;;;7.32;4.00;;;;;;;30.26;57.14;100263.06;5113373;28;20122;-67
2021/09/15 10:41:33;;;;;;;6.55;3.63;;;;;;;30.64;56.41;100280.47;5112276;28;20079;-67
2021/09/15 10:44:11;;;;;;;5.38;3.72;;;;;;;30.70;55.37;100278.75;5113753;28;20086;-65
2021/09/15 10:46:39;;;;;;;5.78;3.85;;;;;;;31.01;54.61;100281.78;5113007;28;20584;-66
2021/09/15 10:49:40;;;;;;;7.20;4.78;;;;;;;31.48;55.57;100282.13;5111444;27;20075;-66
2021/09/15 10:52:06;;;;;;;4.38;3.22;;;;;;;32.24;51.99;100298.06;5109410;28;20440;-66
2021/09/15 10:54:44;;;;;;;3.92;2.55;;;;;;;31.77;51.79;100292.09;5105003;28;20083;-67
2021/09/15 10:57:16;;;;;;;3.50;2.90;;;;;;;31.25;51.08;100282.78;5093818;28;20571;-66
2021/09/15 10:59:50;;;;;;;6.68;3.15;;;;;;;31.00;50.64;100289.63;5075447;28;20484;-66
2021/09/15 11:02:25;;;;;;;4.68;2.75;;;;;;;30.76;50.87;100290.69;5093306;28;20130;-66
2021/09/15 11:04:53;;;;;;;3.92;2.95;;;;;;;30.50;50.74;100289.25;5092927;28;20139;-66
2021/09/15 11:07:47;;;;;;;5.55;2.85;;;;;;;30.57;51.35;100290.00;5095113;28;20071;-66
2021/09/15 11:10:33;;;;;;;4.15;3.15;;;;;;;30.69;51.18;100298.13;5098157;28;20067;-66
2021/09/15 11:13:08;;;;;;;4.78;3.40;;;;;;;31.12;50.30;100294.88;5090822;28;20218;-66
2021/09/15 11:15:38;;;;;;;5.93;3.03;;;;;;;31.52;48.81;100280.03;5092585;28;20134;-66
2021/09/15 11:18:06;;;;;;;7.18;3.92;;;;;;;32.03;47.86;100293.38;5093004;28;20047;-66
2021/09/15 11:20:37;;;;;;;3.83;2.53;;;;;;;32.53;46.82;100291.84;5093069;28;20181;-66
2021/09/15 11:23:07;;;;;;;5.95;3.78;;;;;;;32.70;46.02;100284.16;5107231;28;20130;-67
2021/09/15 11:25:35;;;;;;;5.80;3.40;;;;;;;32.59;45.68;100271.94;5093882;28;20075;-66
2021/09/15 11:28:14;;;;;;;6.63;4.03;;;;;;;32.51;45.67;100291.47;5093212;28;20123;-66
2021/09/15 11:30:42;;;;;;;;;;;;;;;32.69;48.75;100302.75;5101827;28;20426;-66
2021/09/15 11:33:09;;;;;;;6.50;3.40;;;;;;;33.44;45.48;100296.44;5078748;28;19920;-67